Skip Navigation LinksHome page > Tools > METAR decoder Skip Navigation Links

METAR decoder

Settings

METAR

Chicago O'Hare Intl, Chicago

For information only: do not use for flight planning or navigation.
Latest weather
Observation time Saturday, January 31, 2015 5:51 PM CST
Local time Saturday, January 31, 2015 6:26 PM CST
Flight conditions Marginal Visual Meteorological Conditions
Winds
Wind speed calm
Visibility 10 mi.
Sky condition
Ceiling 2,300 ft. broken clouds
Cloud layer broken clouds 2,300 ft.
Cloud layer overcast 2,900 ft.
Temperature 35°F
Dewpoint 27°F
Altimeter 30.17 in.Hg
Pressure change last 3 hours-0.01 in.Hg
Pressure rising more quickly
Derived measurements
Relative humidity 72%
Wind chill 35°F
Density altitude -1160 ft.
Sea-level pressure 30.19 in.Hg
Climate data
Temperature minimum, last 6 hours 34°F
Temperature maximum, last 6 hours 36°F
Remarks
Automated weather observing station with precipitation discriminator.
METAR KORD 312351Z 00000KT 10SM BKN023 OVC029 02/M03 A3017 RMK AO2 SLP224 T00171028 10022 20011 53003

InnerDrive.Weather 4.0.5505.0 Release CLR 4.0.30319.34014
Copyright ©2015 Inner Drive Technology. All rights reserved. Portions Copyright ©1986-2015 David Braverman.

Find weather

Site navigation


Skip Navigation Links

Place info

Page info

PayPal - The safer, easier way to pay online!

Return home.

Copyright ©2015 Inner Drive Technology. Purveyors of fine, hand-crafted computer software. Page printed 2015-02-01T00:26:38 UTC.